Time;durP1;ratioP1;P1;durP2;ratioP2;P2;SDS_P1;SDS_P2;PMS_P1;PMS_P2;Temp;Humidity;BMP_temperature;BMP_pressure;BME280_temperature;BME280_humidity;BME280_pressure;Samples;Min_cycle;Max_cycle;Signal;HPM_P1;HPM_P2
2021/09/10 00:01:17;;;;;;;;;;;22.60;64.90;;;;;;5085542;28;20295;-57
2021/09/10 00:03:43;;;;;;;;;;;22.50;64.40;;;;;;5072747;28;19920;-60
2021/09/10 00:06:08;;;;;;;;;;;22.60;64.50;;;;;;5072458;28;19916;-60
2021/09/10 00:08:34;;;;;;;;;;;22.60;64.60;;;;;;5081387;28;20489;-57
2021/09/10 00:10:59;;;;;;;;;;;22.60;64.50;;;;;;5076973;28;19916;-60
2021/09/10 00:13:25;;;;;;;;;;;22.60;64.20;;;;;;5078379;28;19912;-58
2021/09/10 00:15:50;;;;;;;;;;;22.60;64.70;;;;;;5065307;28;19920;-61
2021/09/10 00:18:15;;;;;;;;;;;22.50;64.10;;;;;;5065585;28;19941;-58
2021/09/10 00:20:41;;;;;;;;;;;22.60;64.80;;;;;;5069835;28;19920;-58
2021/09/10 00:23:06;;;;;;;;;;;22.50;64.50;;;;;;5069782;28;20274;-61
2021/09/10 00:25:32;;;;;;;;;;;22.50;64.80;;;;;;5081564;28;19912;-61
2021/09/10 00:27:57;;;;;;;;;;;22.60;65.20;;;;;;5069536;28;20502;-62
2021/09/10 00:30:23;;;;;;;;;;;22.60;65.10;;;;;;5068197;28;19916;-59
2021/09/10 00:32:48;;;;;;;;;;;22.60;65.10;;;;;;5066643;28;19919;-61
2021/09/10 00:35:14;;;;;;;;;;;22.50;65.30;;;;;;5074199;28;19920;-61
2021/09/10 00:37:39;;;;;;;;;;;22.50;65.20;;;;;;5078444;28;20496;-60
2021/09/10 00:40:05;;;;;;;;;;;22.50;65.40;;;;;;5070204;28;19920;-57
2021/09/10 00:42:30;;;;;;;;;;;22.50;65.50;;;;;;5077953;28;20718;-60
2021/09/10 00:44:56;;;;;;;;;;;22.50;65.50;;;;;;5071406;28;19919;-57
2021/09/10 00:47:21;;;;;;;;;;;22.50;65.30;;;;;;5069041;28;19913;-59
2021/09/10 00:49:47;;;;;;;;;;;22.50;65.10;;;;;;5075797;28;19913;-60
2021/09/10 00:52:12;;;;;;;;;;;22.60;65.10;;;;;;5076590;28;19927;-59
2021/09/10 00:54:38;;;;;;;;;;;22.60;65.50;;;;;;5049746;28;20648;-60
2021/09/10 00:57:03;;;;;;;;;;;22.60;65.10;;;;;;5084116;28;19915;-60
2021/09/10 00:59:29;;;;;;;;;;;22.60;65.20;;;;;;5075865;28;19912;-56
2021/09/10 01:01:54;;;;;;;;;;;22.60;64.60;;;;;;5069286;28;20027;-61
2021/09/10 01:04:22;;;;;;;;;;;22.60;65.30;;;;;;5075328;28;19912;-59
2021/09/10 01:06:47;;;;;;;;;;;22.60;65.10;;;;;;5080465;28;19923;-61
2021/09/10 01:09:13;;;;;;;;;;;22.60;65.00;;;;;;5078457;28;19917;-60
2021/09/10 01:11:38;;;;;;;;;;;22.50;65.30;;;;;;5053542;28;19912;-61
2021/09/10 01:14:04;;;;;;;;;;;22.60;64.90;;;;;;5066238;28;19920;-61
2021/09/10 01:16:29;;;;;;;;;;;22.60;65.10;;;;;;5061947;28;20297;-60
2021/09/10 01:18:55;;;;;;;;;;;22.60;65.20;;;;;;5084284;28;19912;-59
2021/09/10 01:21:20;;;;;;;;;;;22.60;65.40;;;;;;5080718;28;19920;-60
2021/09/10 01:23:46;;;;;;;;;;;22.60;65.60;;;;;;5081884;28;20377;-59
2021/09/10 01:26:11;;;;;;;;;;;22.60;65.50;;;;;;5068082;28;20178;-61
2021/09/10 01:28:37;;;;;;;;;;;22.60;65.30;;;;;;5064227;28;20015;-60
2021/09/10 01:31:02;;;;;;;;;;;22.60;65.30;;;;;;5074722;28;20011;-61
2021/09/10 01:33:28;;;;;;;;;;;22.60;65.50;;;;;;5058355;28;20377;-61
2021/09/10 01:35:53;;;;;;;;;;;22.60;66.30;;;;;;5066112;28;19916;-61
2021/09/10 01:38:18;;;;;;;;;;;22.60;65.80;;;;;;5056917;28;19966;-61
2021/09/10 01:40:44;;;;;;;;;;;22.60;65.70;;;;;;5070991;28;19946;-62
2021/09/10 01:43:10;;;;;;;;;;;22.60;65.30;;;;;;5083005;28;19965;-59
2021/09/10 01:45:35;;;;;;;;;;;22.60;65.40;;;;;;5068975;28;20369;-60
2021/09/10 01:48:01;;;;;;;;;;;22.60;65.60;;;;;;5066283;28;19913;-60
2021/09/10 01:50:26;;;;;;;;;;;22.60;65.50;;;;;;5077098;28;19999;-58
2021/09/10 01:52:52;;;;;;;;;;;22.60;65.50;;;;;;5070038;28;20384;-59
2021/09/10 01:55:18;;;;;;;;;;;22.60;65.50;;;;;;5074593;28;19932;-61
2021/09/10 01:57:44;;;;;;;;;;;22.60;65.70;;;;;;5071737;28;19966;-59
2021/09/10 02:00:10;;;;;;;;;;;22.60;65.30;;;;;;5072102;28;19923;-59
2021/09/10 02:02:35;;;;;;;;;;;22.60;65.10;;;;;;5063215;28;19920;-59
2021/09/10 02:05:01;;;;;;;;;;;22.60;65.20;;;;;;5072852;28;20003;-59
2021/09/10 02:07:26;;;;;;;;;;;22.60;65.80;;;;;;5071759;28;21107;-57
2021/09/10 02:09:52;;;;;;;;;;;22.60;65.30;;;;;;5082233;28;19942;-59
2021/09/10 02:12:17;;;;;;;;;;;22.60;65.60;;;;;;5066514;28;19917;-60
2021/09/10 02:14:42;;;;;;;;;;;22.60;65.60;;;;;;5077205;28;19973;-59
2021/09/10 02:17:08;;;;;;;;;;;22.60;65.70;;;;;;5071774;28;20388;-56
2021/09/10 02:19:33;;;;;;;;;;;22.60;65.60;;;;;;5067922;28;19916;-60
2021/09/10 02:21:59;;;;;;;;;;;22.60;65.30;;;;;;5077971;28;19916;-57
2021/09/10 02:24:24;;;;;;;;;;;22.60;65.40;;;;;;5075692;28;19952;-64
2021/09/10 02:26:50;;;;;;;;;;;22.60;65.50;;;;;;5064472;28;20224;-61
2021/09/10 02:29:15;;;;;;;;;;;22.60;65.40;;;;;;5069641;28;19927;-60
2021/09/10 02:31:41;;;;;;;;;;;22.60;65.80;;;;;;5075839;28;20347;-57
2021/09/10 02:34:06;;;;;;;;;;;22.60;65.30;;;;;;5078157;28;19942;-62
2021/09/10 02:36:34;;;;;;;;;;;22.60;65.80;;;;;;5074437;28;19912;-61
2021/09/10 02:38:59;;;;;;;;;;;22.60;65.50;;;;;;5067137;28;19962;-61
2021/09/10 02:41:25;;;;;;;;;;;22.60;66.40;;;;;;5062401;28;20324;-61
2021/09/10 02:43:50;;;;;;;;;;;22.60;65.60;;;;;;5068272;28;19912;-59
2021/09/10 02:46:16;;;;;;;;;;;22.50;65.40;;;;;;5078227;28;20002;-58
2021/09/10 02:48:41;;;;;;;;;;;22.60;65.40;;;;;;5057666;28;19923;-60
2021/09/10 02:51:07;;;;;;;;;;;22.60;65.60;;;;;;5066999;28;19913;-61
2021/09/10 02:53:32;;;;;;;;;;;22.60;65.70;;;;;;5066754;28;19913;-60
2021/09/10 02:55:58;;;;;;;;;;;22.60;65.60;;;;;;5071129;28;19956;-59
2021/09/10 02:58:24;;;;;;;;;;;22.60;65.70;;;;;;5062847;28;19951;-61
2021/09/10 03:00:49;;;;;;;;;;;22.60;66.00;;;;;;5072381;28;19955;-61
2021/09/10 03:03:15;;;;;;;;;;;22.60;65.60;;;;;;5074379;28;19921;-61
2021/09/10 03:05:40;;;;;;;;;;;22.60;65.70;;;;;;5067675;28;20285;-60
2021/09/10 03:08:06;;;;;;;;;;;22.60;65.70;;;;;;5074143;28;20003;-61
2021/09/10 03:10:31;;;;;;;;;;;22.60;65.80;;;;;;5066611;28;19917;-61
2021/09/10 03:12:57;;;;;;;;;;;22.60;65.60;;;;;;5079428;28;19959;-60
2021/09/10 03:15:22;;;;;;;;;;;22.60;65.70;;;;;;5076470;28;19912;-61
2021/09/10 03:17:47;;;;;;;;;;;22.60;66.50;;;;;;5074887;28;19912;-59
2021/09/10 03:20:13;;;;;;;;;;;22.60;65.80;;;;;;5070893;28;20333;-61
2021/09/10 03:22:38;;;;;;;;;;;22.50;65.90;;;;;;5056096;28;19916;-59
2021/09/10 03:25:04;;;;;;;;;;;22.60;66.10;;;;;;5073676;28;19987;-62
2021/09/10 03:27:29;;;;;;;;;;;22.60;66.10;;;;;;5081718;28;20003;-61
2021/09/10 03:29:55;;;;;;;;;;;22.60;66.00;;;;;;5081457;28;19927;-65
2021/09/10 03:32:20;;;;;;;;;;;22.60;66.00;;;;;;5073894;28;20450;-60
2021/09/10 03:34:46;;;;;;;;;;;22.60;66.20;;;;;;5074185;28;19969;-61
2021/09/10 03:37:13;;;;;;;;;;;22.60;66.40;;;;;;5077403;28;20447;-62
2021/09/10 03:39:39;;;;;;;;;;;22.60;66.00;;;;;;5080348;28;19912;-59
2021/09/10 03:42:04;;;;;;;;;;;22.60;65.90;;;;;;5081631;28;19919;-60
2021/09/10 03:44:29;;;;;;;;;;;22.60;65.90;;;;;;5073932;28;19916;-62
2021/09/10 03:46:55;;;;;;;;;;;22.60;66.10;;;;;;5071471;28;20453;-59
2021/09/10 03:49:20;;;;;;;;;;;22.60;66.10;;;;;;5066518;28;21768;-61
2021/09/10 03:51:46;;;;;;;;;;;22.60;65.90;;;;;;5073865;28;19919;-62
2021/09/10 03:54:11;;;;;;;;;;;22.60;66.20;;;;;;5081529;28;20398;-58
2021/09/10 03:56:37;;;;;;;;;;;22.60;65.90;;;;;;5062335;28;19913;-60
2021/09/10 03:59:02;;;;;;;;;;;22.60;66.10;;;;;;5076485;28;19912;-63
2021/09/10 04:01:27;;;;;;;;;;;22.60;65.90;;;;;;5068825;28;19920;-62
2021/09/10 04:03:53;;;;;;;;;;;22.60;66.20;;;;;;5069372;28;20316;-60
2021/09/10 04:06:18;;;;;;;;;;;22.60;66.10;;;;;;5082133;28;19912;-62
2021/09/10 04:08:44;;;;;;;;;;;22.60;66.20;;;;;;5077680;28;19912;-57
2021/09/10 04:11:09;;;;;;;;;;;22.60;66.10;;;;;;5064218;28;20396;-61
2021/09/10 04:13:35;;;;;;;;;;;22.60;66.10;;;;;;5075646;28;19913;-59
2021/09/10 04:16:01;;;;;;;;;;;22.60;66.40;;;;;;5067086;28;20289;-58
2021/09/10 04:18:26;;;;;;;;;;;22.60;66.30;;;;;;5067176;28;19913;-61
2021/09/10 04:20:52;;;;;;;;;;;22.60;66.40;;;;;;5079357;28;19924;-60
2021/09/10 04:23:17;;;;;;;;;;;22.60;66.20;;;;;;5068206;28;19912;-61
2021/09/10 04:25:42;;;;;;;;;;;22.60;66.50;;;;;;5074323;28;19920;-61
2021/09/10 04:28:10;;;;;;;;;;;22.50;66.60;;;;;;5077476;28;19920;-62
2021/09/10 04:30:35;;;;;;;;;;;22.60;66.80;;;;;;5056736;28;19912;-60
2021/09/10 04:33:01;;;;;;;;;;;22.50;66.90;;;;;;5071239;28;19921;-60
2021/09/10 04:35:27;;;;;;;;;;;22.50;67.00;;;;;;5071234;28;19919;-60
2021/09/10 04:37:52;;;;;;;;;;;22.50;67.10;;;;;;5067151;28;19913;-62
2021/09/10 04:40:18;;;;;;;;;;;22.50;67.10;;;;;;5073273;28;19965;-59
2021/09/10 04:42:44;;;;;;;;;;;22.50;67.20;;;;;;5069568;28;19919;-56
2021/09/10 04:45:10;;;;;;;;;;;22.50;67.20;;;;;;5067404;28;19912;-59
2021/09/10 04:47:35;;;;;;;;;;;22.50;67.50;;;;;;5083391;28;19920;-56
2021/09/10 04:50:01;;;;;;;;;;;22.50;67.70;;;;;;5042811;28;19927;-62
2021/09/10 04:52:26;;;;;;;;;;;22.50;67.70;;;;;;5067660;28;19923;-63
2021/09/10 04:54:53;;;;;;;;;;;22.50;67.80;;;;;;5069458;28;19916;-63
2021/09/10 04:57:18;;;;;;;;;;;22.50;67.90;;;;;;5076341;28;19920;-58
2021/09/10 04:59:44;;;;;;;;;;;22.50;68.00;;;;;;5084890;28;19916;-61
2021/09/10 05:02:09;;;;;;;;;;;22.50;68.00;;;;;;5076922;28;20583;-63
2021/09/10 05:04:35;;;;;;;;;;;22.50;68.20;;;;;;5073437;28;19917;-60
2021/09/10 05:07:00;;;;;;;;;;;22.50;68.30;;;;;;5067324;28;19917;-63
2021/09/10 05:09:25;;;;;;;;;;;22.50;68.60;;;;;;5069204;28;19943;-62
2021/09/10 05:11:51;;;;;;;;;;;22.50;68.50;;;;;;5081496;28;19920;-60
2021/09/10 05:14:16;;;;;;;;;;;22.50;68.40;;;;;;5073609;28;19974;-62
2021/09/10 05:16:42;;;;;;;;;;;22.50;68.70;;;;;;5072665;28;20286;-62
2021/09/10 05:19:09;;;;;;;;;;;22.50;68.60;;;;;;5079805;28;20020;-61
2021/09/10 05:21:35;;;;;;;;;;;22.50;68.70;;;;;;5072996;28;19974;-62
2021/09/10 05:24:00;;;;;;;;;;;22.50;68.60;;;;;;5073280;28;20320;-62
2021/09/10 05:26:26;;;;;;;;;;;22.50;68.30;;;;;;5067794;28;19912;-59
2021/09/10 05:28:51;;;;;;;;;;;22.50;68.30;;;;;;5087438;22;21221;-58
2021/09/10 05:31:17;;;;;;;;;;;22.50;68.40;;;;;;5090559;28;19989;-56
2021/09/10 05:33:42;;;;;;;;;;;22.50;68.30;;;;;;5086442;28;20278;-56
2021/09/10 05:36:07;;;;;;;;;;;22.50;68.10;;;;;;5076225;28;19912;-56
2021/09/10 05:38:33;;;;;;;;;;;22.50;68.30;;;;;;5072506;28;19943;-57
2021/09/10 05:40:58;;;;;;;;;;;22.50;68.00;;;;;;5072904;28;19931;-59
2021/09/10 05:43:24;;;;;;;;;;;22.50;68.00;;;;;;5073593;28;20259;-57
2021/09/10 05:45:49;;;;;;;;;;;22.50;68.10;;;;;;5075144;28;19920;-59
2021/09/10 05:48:22;;;;;;;;;;;22.50;68.10;;;;;;5072314;28;19920;-57
2021/09/10 05:50:49;;;;;;;;;;;22.50;68.00;;;;;;5068227;28;19913;-59
2021/09/10 05:53:16;;;;;;;;;;;22.50;68.10;;;;;;5092024;28;19913;-58
2021/09/10 05:55:41;;;;;;;;;;;22.50;68.10;;;;;;5078203;28;19935;-59
2021/09/10 05:58:07;;;;;;;;;;;22.50;68.20;;;;;;5076415;28;20012;-58
2021/09/10 06:00:32;;;;;;;;;;;22.50;68.20;;;;;;5088101;28;19916;-58
2021/09/10 06:02:58;;;;;;;;;;;22.40;68.30;;;;;;5069570;28;19912;-58
2021/09/10 06:05:23;;;;;;;;;;;22.50;68.90;;;;;;5079189;28;20327;-58
2021/09/10 06:07:49;;;;;;;;;;;22.50;68.30;;;;;;5065247;28;19927;-59
2021/09/10 06:10:15;;;;;;;;;;;22.50;68.30;;;;;;5080795;28;19981;-58
2021/09/10 06:12:41;;;;;;;;;;;22.50;68.40;;;;;;5063053;28;20365;-58
2021/09/10 06:15:06;;;;;;;;;;;22.50;68.40;;;;;;5076550;28;19916;-59
2021/09/10 06:17:32;;;;;;;;;;;22.50;68.50;;;;;;5069800;28;19920;-57
2021/09/10 06:19:57;;;;;;;;;;;22.50;68.40;;;;;;5071387;28;20327;-60
2021/09/10 06:22:23;;;;;;;;;;;22.50;68.50;;;;;;5076716;28;19923;-58
2021/09/10 06:24:49;;;;;;;;;;;22.50;68.40;;;;;;5067294;28;20265;-58
2021/09/10 06:27:14;;;;;;;;;;;22.50;68.50;;;;;;5089398;28;19912;-56
2021/09/10 06:29:40;;;;;;;;;;;22.50;68.70;;;;;;5071648;28;20301;-57
2021/09/10 06:32:05;;;;;;;;;;;22.50;68.60;;;;;;5073345;28;19968;-59
2021/09/10 06:34:31;;;;;;;;;;;22.50;68.60;;;;;;5064360;28;19912;-57
2021/09/10 06:36:56;;;;;;;;;;;22.50;68.60;;;;;;5090752;28;19924;-56
2021/09/10 06:39:22;;;;;;;;;;;22.50;68.50;;;;;;5080499;28;19913;-58
2021/09/10 06:41:47;;;;;;;;;;;22.50;68.60;;;;;;5073783;28;20029;-57
2021/09/10 06:44:13;;;;;;;;;;;22.50;68.60;;;;;;5071341;28;19938;-57
2021/09/10 06:46:38;;;;;;;;;;;22.50;68.60;;;;;;5066811;28;19916;-58
2021/09/10 06:49:03;;;;;;;;;;;22.50;68.60;;;;;;5071117;28;20354;-56
2021/09/10 06:51:29;;;;;;;;;;;22.50;68.70;;;;;;5070255;28;19924;-57
2021/09/10 06:53:54;;;;;;;;;;;22.50;68.50;;;;;;5075924;28;19927;-58
2021/09/10 06:56:20;;;;;;;;;;;22.50;68.70;;;;;;5071412;28;19916;-58
2021/09/10 06:58:45;;;;;;;;;;;22.50;68.70;;;;;;5077756;28;19912;-58
2021/09/10 07:01:14;;;;;;;;;;;22.50;68.70;;;;;;5066460;28;19964;-59
2021/09/10 07:03:39;;;;;;;;;;;22.50;68.60;;;;;;5072037;28;20452;-57
2021/09/10 07:06:06;;;;;;;;;;;22.50;68.70;;;;;;5072628;28;19953;-58
2021/09/10 07:08:32;;;;;;;;;;;22.50;68.80;;;;;;5076530;28;20330;-57
2021/09/10 07:10:57;;;;;;;;;;;22.50;68.80;;;;;;5071493;28;19951;-62
2021/09/10 07:13:23;;;;;;;;;;;22.50;68.90;;;;;;5076897;28;19956;-57
2021/09/10 07:15:48;;;;;;;;;;;22.50;68.80;;;;;;5077355;28;19912;-57
2021/09/10 07:18:14;;;;;;;;;;;22.50;68.90;;;;;;5081454;28;20277;-57
2021/09/10 07:20:39;;;;;;;;;;;22.50;68.90;;;;;;5069525;28;19923;-57
2021/09/10 07:23:05;;;;;;;;;;;22.50;68.90;;;;;;5086485;28;20377;-56
2021/09/10 07:25:30;;;;;;;;;;;22.50;68.80;;;;;;5079767;28;19919;-57
2021/09/10 07:27:56;;;;;;;;;;;22.40;68.80;;;;;;5061634;28;19936;-59
2021/09/10 07:30:21;;;;;;;;;;;22.50;68.80;;;;;;5068436;28;19920;-59
2021/09/10 07:32:47;;;;;;;;;;;22.40;69.20;;;;;;5071605;28;19920;-57
2021/09/10 07:35:12;;;;;;;;;;;22.50;68.50;;;;;;5082006;28;20132;-57
2021/09/10 07:37:38;;;;;;;;;;;22.50;68.30;;;;;;5075618;28;20454;-58
2021/09/10 07:40:07;;;;;;;;;;;22.50;68.50;;;;;;5084363;28;19955;-58
2021/09/10 07:42:32;;;;;;;;;;;22.50;68.50;;;;;;5092115;28;20557;-57
2021/09/10 07:44:57;;;;;;;;;;;22.50;68.50;;;;;;5068020;28;19935;-64
2021/09/10 07:47:23;;;;;;;;;;;22.40;68.50;;;;;;5081486;28;20361;-58
2021/09/10 07:49:48;;;;;;;;;;;22.40;68.60;;;;;;5077127;28;19920;-57
2021/09/10 07:52:14;;;;;;;;;;;22.50;68.60;;;;;;5068383;28;19912;-59
2021/09/10 07:54:39;;;;;;;;;;;22.40;68.70;;;;;;5082070;28;19935;-60
2021/09/10 07:57:05;;;;;;;;;;;22.40;68.70;;;;;;5081611;28;19912;-58
2021/09/10 07:59:30;;;;;;;;;;;22.40;68.60;;;;;;5072336;28;19913;-59
2021/09/10 08:01:56;;;;;;;;;;;22.40;68.40;;;;;;5067372;28;19924;-58
2021/09/10 08:04:21;;;;;;;;;;;22.40;68.60;;;;;;5066654;28;19919;-57
2021/09/10 08:06:46;;;;;;;;;;;22.40;68.60;;;;;;5068399;28;19916;-58
2021/09/10 08:09:12;;;;;;;;;;;22.50;68.60;;;;;;5079894;28;20409;-58
2021/09/10 08:11:37;;;;;;;;;;;22.40;68.50;;;;;;5077393;28;19916;-57
2021/09/10 08:14:07;;;;;;;;;;;22.50;68.60;;;;;;5090538;28;19919;-59
2021/09/10 08:16:32;;;;;;;;;;;22.40;68.50;;;;;;5084800;28;19912;-58
2021/09/10 08:18:58;;;;;;;;;;;22.40;68.40;;;;;;5081922;28;19923;-58
2021/09/10 08:21:23;;;;;;;;;;;22.40;68.40;;;;;;5077407;28;20291;-56
2021/09/10 08:23:48;;;;;;;;;;;22.40;68.40;;;;;;5071980;28;19912;-59
2021/09/10 08:26:14;;;;;;;;;;;22.40;68.30;;;;;;5093315;28;19913;-58
2021/09/10 08:28:39;;;;;;;;;;;22.40;68.40;;;;;;5081141;28;20373;-56
2021/09/10 08:31:05;;;;;;;;;;;22.40;68.40;;;;;;5071510;28;19952;-60
2021/09/10 08:33:30;;;;;;;;;;;22.40;68.40;;;;;;5091663;28;19919;-58
2021/09/10 08:35:56;;;;;;;;;;;22.50;68.50;;;;;;5091917;28;19912;-59
2021/09/10 08:38:21;;;;;;;;;;;22.40;68.30;;;;;;5070894;28;19912;-59
2021/09/10 08:40:47;;;;;;;;;;;22.50;68.50;;;;;;5071813;28;19927;-59
2021/09/10 08:43:13;;;;;;;;;;;22.40;68.50;;;;;;5063641;28;19912;-59
2021/09/10 08:45:39;;;;;;;;;;;22.40;68.40;;;;;;5076942;28;19912;-58
2021/09/10 08:48:05;;;;;;;;;;;22.40;68.50;;;;;;5092872;28;20037;-59
2021/09/10 08:50:30;;;;;;;;;;;22.40;69.10;;;;;;5073128;28;19912;-59
2021/09/10 08:52:56;;;;;;;;;;;22.40;68.60;;;;;;5076191;28;19916;-57
2021/09/10 08:55:21;;;;;;;;;;;22.50;68.80;;;;;;5082955;28;19916;-58
2021/09/10 08:57:47;;;;;;;;;;;22.40;68.70;;;;;;5074820;28;19958;-57
2021/09/10 09:00:13;;;;;;;;;;;22.40;68.80;;;;;;5065022;28;19967;-58
2021/09/10 09:02:39;;;;;;;;;;;22.50;68.70;;;;;;5079289;28;19951;-57
2021/09/10 09:05:04;;;;;;;;;;;22.40;68.90;;;;;;5067772;28;19912;-57
2021/09/10 09:07:30;;;;;;;;;;;22.40;68.80;;;;;;5068318;28;19919;-59
2021/09/10 09:09:57;;;;;;;;;;;22.40;68.80;;;;;;5077587;28;19913;-59
2021/09/10 09:12:24;;;;;;;;;;;22.50;68.80;;;;;;5084017;28;19912;-56
2021/09/10 09:14:52;;;;;;;;;;;22.50;68.80;;;;;;5071061;28;20004;-59
2021/09/10 09:17:19;;;;;;;;;;;22.40;68.70;;;;;;5082434;28;19959;-59
2021/09/10 09:19:44;;;;;;;;;;;22.40;68.60;;;;;;5074955;28;20331;-57
2021/09/10 09:22:11;;;;;;;;;;;22.50;69.20;;;;;;5078415;28;21308;-57
2021/09/10 09:24:37;;;;;;;;;;;22.50;68.50;;;;;;5079565;28;19912;-58
2021/09/10 09:27:03;;;;;;;;;;;22.40;68.50;;;;;;5068699;28;19924;-59
2021/09/10 09:29:30;;;;;;;;;;;22.50;68.70;;;;;;5087245;28;19974;-62
2021/09/10 09:32:04;;;;;;;;;;;22.50;68.70;;;;;;5072033;28;19951;-58
2021/09/10 09:34:45;;;;;;;;;;;22.40;69.10;;;;;;5087898;28;19912;-57
2021/09/10 09:37:11;;;;;;;;;;;22.50;69.20;;;;;;5069811;28;19970;-59
2021/09/10 09:39:49;;;;;;;;;;;22.50;69.20;;;;;;5076920;28;19916;-59
2021/09/10 09:42:15;;;;;;;;;;;22.50;69.00;;;;;;5048456;28;19954;-59
2021/09/10 09:44:43;;;;;;;;;;;22.50;68.70;;;;;;5089201;28;19916;-58
2021/09/10 09:47:09;;;;;;;;;;;22.40;68.30;;;;;;5086808;28;20384;-54
2021/09/10 09:49:34;;;;;;;;;;;22.50;68.30;;;;;;5089893;28;19916;-57
2021/09/10 09:52:01;;;;;;;;;;;22.50;68.20;;;;;;5078564;28;20559;-59
2021/09/10 09:54:27;;;;;;;;;;;22.50;68.10;;;;;;5090664;28;19916;-57
2021/09/10 09:56:53;;;;;;;;;;;22.50;67.90;;;;;;5072701;28;19912;-58
2021/09/10 09:59:18;;;;;;;;;;;22.40;67.90;;;;;;5095447;28;19912;-59
2021/09/10 10:01:44;;;;;;;;;;;22.50;67.80;;;;;;5073383;28;19962;-59
2021/09/10 10:04:09;;;;;;;;;;;22.50;67.70;;;;;;5085644;28;19948;-56
2021/09/10 10:06:35;;;;;;;;;;;22.50;67.90;;;;;;5071674;28;19912;-57
2021/09/10 10:09:01;;;;;;;;;;;22.40;68.00;;;;;;5062394;28;20403;-57
2021/09/10 10:11:31;;;;;;;;;;;22.50;68.10;;;;;;5065516;28;19928;-58
2021/09/10 10:13:57;;;;;;;;;;;22.40;68.00;;;;;;5062864;28;19920;-57
2021/09/10 10:16:38;;;;;;;;;;;22.50;68.10;;;;;;5078529;28;19916;-58
2021/09/10 10:19:04;;;;;;;;;;;22.50;68.20;;;;;;5068251;28;19912;-58
2021/09/10 10:21:50;;;;;;;;;;;22.50;68.40;;;;;;5066648;28;19920;-58
2021/09/10 10:24:34;;;;;;;;;;;22.50;68.30;;;;;;5071013;28;19913;-56
2021/09/10 10:27:20;;;;;;;;;;;22.50;68.30;;;;;;5062286;28;19935;-58
2021/09/10 10:29:45;;;;;;;;;;;22.50;68.20;;;;;;5064484;28;19920;-59
2021/09/10 10:32:11;;;;;;;;;;;22.50;68.10;;;;;;5070368;28;20378;-56
2021/09/10 10:34:57;;;;;;;;;;;22.50;68.00;;;;;;5062692;28;19912;-56
2021/09/10 10:37:38;;;;;;;;;;;22.50;68.10;;;;;;5077479;28;20336;-58
2021/09/10 10:40:23;;;;;;;;;;;22.50;68.00;;;;;;5074467;28;20274;-59
2021/09/10 10:42:49;;;;;;;;;;;22.50;68.00;;;;;;5070464;28;19951;-57
2021/09/10 10:45:14;;;;;;;;;;;22.50;68.10;;;;;;5066546;28;19955;-58
2021/09/10 10:47:39;;;;;;;;;;;22.50;68.20;;;;;;5061785;28;20521;-60
2021/09/10 10:50:05;;;;;;;;;;;22.50;68.70;;;;;;5075287;28;20002;-59
2021/09/10 10:52:34;;;;;;;;;;;22.50;68.60;;;;;;5077886;28;19912;-57
2021/09/10 10:55:19;;;;;;;;;;;22.50;68.30;;;;;;5074312;28;19912;-59
2021/09/10 10:57:48;;;;;;;;;;;22.50;68.00;;;;;;5073352;28;19913;-59
2021/09/10 11:00:28;;;;;;;;;;;22.50;67.70;;;;;;5061561;28;20541;-59
2021/09/10 11:03:12;;;;;;;;;;;22.50;67.50;;;;;;5048546;28;20201;-58
2021/09/10 11:05:38;;;;;;;;;;;22.50;67.30;;;;;;5079446;28;19912;-60
2021/09/10 11:08:03;;;;;;;;;;;22.50;67.20;;;;;;5073428;28;20023;-59
2021/09/10 11:10:29;;;;;;;;;;;22.50;67.60;;;;;;5082157;28;19912;-59
2021/09/10 11:12:55;;;;;;;;;;;22.50;67.60;;;;;;5066984;28;19916;-59
2021/09/10 11:15:27;;;;;;;;;;;22.50;67.70;;;;;;5068313;28;20499;-57
2021/09/10 11:17:53;;;;;;;;;;;22.50;67.50;;;;;;5060724;28;19940;-57
2021/09/10 11:20:31;;;;;;;;;;;22.60;67.10;;;;;;5091807;28;20579;-59
2021/09/10 11:22:56;;;;;;;;;;;22.50;67.10;;;;;;5069944;28;19916;-59
2021/09/10 11:25:22;;;;;;;;;;;22.50;67.20;;;;;;5092678;28;20361;-59
2021/09/10 11:27:47;;;;;;;;;;;22.50;67.10;;;;;;5073171;28;19919;-58
2021/09/10 11:30:13;;;;;;;;;;;22.50;67.20;;;;;;5079445;22;19981;-61
2021/09/10 11:32:39;;;;;;;;;;;22.50;67.30;;;;;;5078962;28;19970;-59
2021/09/10 11:35:17;;;;;;;;;;;22.60;67.40;;;;;;5086578;28;19967;-60
2021/09/10 11:37:49;;;;;;;;;;;22.60;67.50;;;;;;5085867;28;19998;-60
2021/09/10 11:40:14;;;;;;;;;;;22.50;66.90;;;;;;5083049;28;19939;-61
2021/09/10 11:42:41;;;;;;;;;;;22.50;67.00;;;;;;5098623;28;20408;-61
2021/09/10 11:45:14;;;;;;;;;;;22.60;67.00;;;;;;5084797;28;19916;-59
2021/09/10 11:47:40;;;;;;;;;;;22.60;67.10;;;;;;5070019;28;20003;-60
2021/09/10 11:50:08;;;;;;;;;;;22.60;67.00;;;;;;5084273;28;19913;-60
2021/09/10 11:52:35;;;;;;;;;;;22.60;66.40;;;;;;5088048;28;19946;-61
2021/09/10 11:55:13;;;;;;;;;;;22.60;66.30;;;;;;5083689;28;19955;-61
2021/09/10 11:57:39;;;;;;;;;;;22.60;66.70;;;;;;5103501;28;19920;-61
2021/09/10 12:00:08;;;;;;;;;;;22.60;66.70;;;;;;5099222;28;19911;-61
2021/09/10 12:02:33;;;;;;;;;;;22.60;66.70;;;;;;5083310;28;19918;-61
2021/09/10 12:05:00;;;;;;;;;;;22.60;67.10;;;;;;5104173;27;19920;-61
2021/09/10 12:07:29;;;;;;;;;;;22.60;66.90;;;;;;5089868;28;19912;-60
2021/09/10 12:09:55;;;;;;;;;;;22.60;66.80;;;;;;5090750;28;19999;-61
2021/09/10 12:12:23;;;;;;;;;;;22.60;66.70;;;;;;5090423;28;20200;-61
2021/09/10 12:14:58;;;;;;;;;;;22.60;66.40;;;;;;5094653;28;19920;-61
2021/09/10 12:17:24;;;;;;;;;;;22.60;65.80;;;;;;5086883;28;20006;-62
2021/09/10 12:19:49;;;;;;;;;;;22.60;65.80;;;;;;5088665;28;20866;-62
2021/09/10 12:22:34;;;;;;;;;;;22.60;65.90;;;;;;5087699;28;19916;-60
2021/09/10 12:25:18;;;;;;;;;;;22.60;65.70;;;;;;5083215;28;19912;-60
2021/09/10 12:27:43;;;;;;;;;;;22.60;65.40;;;;;;5094617;28;19912;-61
2021/09/10 12:30:09;;;;;;;;;;;22.60;65.50;;;;;;5090232;28;19935;-61
2021/09/10 12:32:34;;;;;;;;;;;22.60;65.30;;;;;;5099639;28;19939;-59
2021/09/10 12:35:01;;;;;;;;;;;22.60;65.30;;;;;;5089905;28;19922;-60
2021/09/10 12:37:28;;;;;;;;;;;22.60;65.50;;;;;;5091608;28;19919;-59
2021/09/10 12:39:54;;;;;;;;;;;22.70;65.90;;;;;;5086319;28;20372;-58
2021/09/10 12:42:19;;;;;;;;;;;22.70;65.90;;;;;;5103590;28;19995;-62
2021/09/10 12:44:45;;;;;;;;;;;22.70;66.30;;;;;;5087359;28;20596;-60
2021/09/10 12:47:10;;;;;;;;;;;22.70;65.90;;;;;;5093777;28;19919;-58
2021/09/10 12:49:36;;;;;;;;;;;22.70;65.60;;;;;;5094394;28;20541;-61
2021/09/10 12:52:01;;;;;;;;;;;22.70;65.70;;;;;;5084954;28;19951;-59
2021/09/10 12:54:27;;;;;;;;;;;22.70;65.80;;;;;;5089373;28;19939;-60
2021/09/10 12:56:52;;;;;;;;;;;22.70;65.60;;;;;;5069675;28;19916;-60
2021/09/10 12:59:18;;;;;;;;;;;22.70;65.50;;;;;;5087088;28;20270;-61
2021/09/10 13:01:43;;;;;;;;;;;22.70;65.70;;;;;;5095944;28;19920;-61
2021/09/10 13:04:08;;;;;;;;;;;22.70;66.40;;;;;;5088994;28;19931;-60
2021/09/10 13:06:34;;;;;;;;;;;22.70;65.10;;;;;;5091095;28;19912;-61
2021/09/10 13:08:59;;;;;;;;;;;22.70;65.20;;;;;;5086362;28;19919;-60
2021/09/10 13:11:25;;;;;;;;;;;22.70;65.60;;;;;;5076516;28;19923;-60
2021/09/10 13:13:50;;;;;;;;;;;22.70;65.70;;;;;;5096231;28;20560;-61
2021/09/10 13:16:16;;;;;;;;;;;22.80;65.60;;;;;;5088208;28;19917;-58
2021/09/10 13:18:41;;;;;;;;;;;22.80;65.40;;;;;;5087250;28;20403;-59
2021/09/10 13:21:07;;;;;;;;;;;22.70;65.30;;;;;;5087513;28;19916;-61
2021/09/10 13:23:32;;;;;;;;;;;22.80;65.40;;;;;;5085643;28;19916;-60
2021/09/10 13:25:58;;;;;;;;;;;22.70;65.40;;;;;;5098891;28;19913;-61
2021/09/10 13:28:23;;;;;;;;;;;22.80;65.80;;;;;;5087885;28;19919;-61
2021/09/10 13:30:48;;;;;;;;;;;22.80;65.70;;;;;;5091796;28;19920;-61
2021/09/10 13:33:14;;;;;;;;;;;22.80;65.90;;;;;;5087152;28;20236;-61
2021/09/10 13:35:39;;;;;;;;;;;22.80;65.90;;;;;;5086475;28;19920;-59
2021/09/10 13:38:05;;;;;;;;;;;22.70;66.00;;;;;;5090845;28;19935;-60
2021/09/10 13:40:30;;;;;;;;;;;22.80;66.10;;;;;;5094202;28;19931;-63
2021/09/10 13:42:56;;;;;;;;;;;22.80;66.10;;;;;;5089765;28;19960;-61
2021/09/10 13:45:21;;;;;;;;;;;22.80;66.20;;;;;;5094753;28;20368;-61
2021/09/10 13:47:47;;;;;;;;;;;22.80;66.30;;;;;;5095620;28;19919;-60
2021/09/10 13:50:12;;;;;;;;;;;22.80;66.50;;;;;;5091501;28;19927;-61
2021/09/10 13:52:38;;;;;;;;;;;22.80;66.90;;;;;;5094272;28;20294;-61
2021/09/10 13:55:04;;;;;;;;;;;22.80;67.30;;;;;;5094597;28;19995;-61
2021/09/10 13:57:30;;;;;;;;;;;22.80;67.20;;;;;;5098983;28;20417;-61
2021/09/10 13:59:55;;;;;;;;;;;22.90;66.90;;;;;;5096188;28;19967;-58
2021/09/10 14:02:21;;;;;;;;;;;22.90;66.90;;;;;;5095759;28;19912;-61
2021/09/10 14:04:46;;;;;;;;;;;22.90;66.70;;;;;;5086724;28;19916;-60
2021/09/10 14:07:12;;;;;;;;;;;22.90;66.60;;;;;;5086791;28;19930;-61
2021/09/10 14:09:37;;;;;;;;;;;22.90;66.40;;;;;;5088454;28;19912;-60
2021/09/10 14:12:03;;;;;;;;;;;22.90;66.30;;;;;;5102160;28;19912;-59